Time;durP1;ratioP1;P1;durP2;ratioP2;P2;SDS_P1;SDS_P2;PMS_P1;PMS_P2;Temp;Humidity;BMP_temperature;BMP_pressure;BME280_temperature;BME280_humidity;BME280_pressure;Samples;Min_cycle;Max_cycle;Signal;HPM_P1;HPM_P2
2023/09/15 00:01:21;;;;;;;4.90;4.40;;;19.10;54.20;;;;;;20759;6738;117572;-75
2023/09/15 00:03:54;;;;;;;5.40;4.90;;;19.00;54.40;;;;;;20831;6752;117818;-75
2023/09/15 00:06:31;;;;;;;5.73;5.33;;;18.60;54.90;;;;;;20611;6752;276507;-75
2023/09/15 00:09:07;;;;;;;5.80;5.30;;;18.80;54.70;;;;;;20620;6767;278135;-75
2023/09/15 00:11:42;;;;;;;4.87;4.50;;;19.10;54.20;;;;;;20703;6750;117362;-76
2023/09/15 00:14:18;;;;;;;4.27;3.90;;;19.00;54.60;;;;;;20813;6751;147840;-78
2023/09/15 00:16:53;;;;;;;5.32;4.97;;;18.70;55.20;;;;;;20662;6738;306640;-76
2023/09/15 00:19:29;;;;;;;5.03;4.73;;;18.80;54.90;;;;;;20636;6738;281063;-75
2023/09/15 00:22:04;;;;;;;4.67;4.27;;;19.10;54.60;;;;;;20691;6751;117504;-75
2023/09/15 00:24:40;;;;;;;4.57;4.27;;;19.00;54.90;;;;;;20844;6750;117312;-75
2023/09/15 00:27:15;;;;;;;5.30;5.00;;;18.70;55.40;;;;;;20617;6751;310604;-75
2023/09/15 00:29:51;;;;;;;4.83;4.43;;;18.80;54.80;;;;;;20835;6747;117558;-75
2023/09/15 00:32:30;;;;;;;6.00;5.40;;;18.70;55.00;;;;;;20622;6747;278984;-75
2023/09/15 00:35:03;;;;;;;5.90;5.60;;;18.80;54.50;;;;;;20612;6747;283083;-75
2023/09/15 00:37:39;;;;;;;5.23;4.73;;;18.80;54.50;;;;;;20793;6767;117473;-75
2023/09/15 00:40:18;;;;;;;5.67;5.27;;;18.80;54.40;;;;;;20538;6758;292229;-75
2023/09/15 00:42:53;;;;;;;5.03;4.63;;;18.80;54.40;;;;;;20853;6744;117130;-75
2023/09/15 00:45:31;;;;;;;5.87;5.47;;;18.60;54.90;;;;;;20652;6743;277706;-75
2023/09/15 00:48:08;;;;;;;6.65;6.00;;;18.90;54.10;;;;;;20632;6743;336147;-75
2023/09/15 00:50:43;;;;;;;6.10;5.60;;;18.90;54.00;;;;;;20578;6743;287609;-75
2023/09/15 00:53:20;;;;;;;5.77;5.30;;;19.10;53.80;;;;;;20911;6729;117460;-75
2023/09/15 00:55:54;;;;;;;5.33;4.93;;;18.80;54.30;;;;;;20865;6742;122772;-74
2023/09/15 00:58:32;;;;;;;5.73;5.23;;;18.40;55.60;;;;;;20608;6743;312353;-75
2023/09/15 01:01:09;;;;;;;5.07;4.70;;;18.30;55.30;;;;;;20709;6758;117840;-75
2023/09/15 01:03:45;;;;;;;5.03;4.50;;;18.20;55.20;;;;;;20796;6761;117009;-75
2023/09/15 01:06:22;;;;;;;6.10;5.70;;;18.10;56.00;;;;;;20623;6743;314603;-75
2023/09/15 01:08:56;;;;;;;5.50;5.10;;;18.10;55.50;;;;;;20805;6758;117824;-74
2023/09/15 01:11:34;;;;;;;6.10;5.70;;;18.00;55.60;;;;;;20449;6757;279437;-74
2023/09/15 01:14:09;;;;;;;5.20;4.80;;;18.20;55.40;;;;;;20762;6758;126628;-75
2023/09/15 01:16:58;;;;;;;6.40;5.90;;;18.10;55.70;;;;;;20620;6750;278125;-74
2023/09/15 01:20:00;;;;;;;5.77;5.10;;;18.20;55.30;;;;;;20834;6749;122048;-74
2023/09/15 01:22:58;;;;;;;7.00;5.00;;;18.10;55.70;;;;;;20835;6749;117314;-74
2023/09/15 01:25:45;;;;;;;4.80;4.50;;;17.50;57.10;;;;;;20869;6747;117508;-74
2023/09/15 01:28:37;;;;;;;5.83;5.50;;;17.50;57.00;;;;;;20597;6734;313858;-75
2023/09/15 01:31:14;;;;;;;5.97;5.47;;;17.80;56.80;;;;;;20459;6751;282443;-75
2023/09/15 01:33:49;;;;;;;6.27;5.67;;;18.30;55.20;;;;;;20608;6752;307075;-75
2023/09/15 01:36:25;;;;;;;6.17;5.70;;;18.60;54.10;;;;;;20584;6752;307063;-75
2023/09/15 01:39:00;;;;;;;5.27;4.87;;;18.70;53.60;;;;;;20820;6748;123165;-75
2023/09/15 01:41:36;;;;;;;5.63;5.23;;;18.50;54.30;;;;;;20507;6737;310575;-75
2023/09/15 01:44:12;;;;;;;5.60;5.20;;;18.40;53.90;;;;;;20544;6760;278044;-75
2023/09/15 01:46:47;;;;;;;6.10;5.70;;;18.60;53.60;;;;;;20589;6759;306633;-75
2023/09/15 01:49:23;;;;;;;5.67;5.27;;;18.80;53.20;;;;;;20633;6744;308464;-75
2023/09/15 01:51:58;;;;;;;5.07;4.77;;;18.80;52.90;;;;;;20642;6759;117547;-75
2023/09/15 01:54:34;;;;;;;4.90;4.60;;;18.50;53.60;;;;;;20667;6768;117548;-75
2023/09/15 01:57:10;;;;;;;5.60;5.20;;;18.10;54.70;;;;;;20514;6753;305887;-75
2023/09/15 01:59:45;;;;;;;5.63;4.90;;;18.10;55.00;;;;;;20682;6768;117088;-75
2023/09/15 02:02:21;;;;;;;5.03;4.63;;;18.10;55.40;;;;;;20703;6759;119664;-75
2023/09/15 02:04:57;;;;;;;5.55;5.05;;;18.00;55.40;;;;;;20501;6759;278460;-76
2023/09/15 02:07:32;;;;;;;8.03;4.60;;;18.00;55.40;;;;;;20761;6747;117371;-75
2023/09/15 02:10:10;;;;;;;6.35;5.90;;;18.10;54.70;;;;;;20535;6759;305907;-75
2023/09/15 02:12:46;;;;;;;6.87;6.33;;;18.10;55.20;;;;;;20592;6759;307211;-75
2023/09/15 02:15:22;;;;;;;5.70;5.30;;;18.10;55.00;;;;;;20880;6732;118345;-75
2023/09/15 02:18:01;;;;;;;6.60;6.00;;;18.10;54.20;;;;;;20582;6762;311173;-75
2023/09/15 02:20:38;;;;;;;5.93;5.43;;;18.20;54.40;;;;;;20766;6747;117400;-75
2023/09/15 02:23:14;;;;;;;6.53;6.05;;;18.00;55.00;;;;;;20629;6744;276152;-75
2023/09/15 02:25:51;;;;;;;6.40;5.95;;;18.00;55.00;;;;;;20645;6744;310577;-75
2023/09/15 02:28:27;;;;;;;5.50;5.20;;;18.30;54.10;;;;;;20840;6744;118741;-75
2023/09/15 02:31:03;;;;;;;5.50;5.13;;;18.10;54.70;;;;;;20789;6732;118249;-75
2023/09/15 02:33:40;;;;;;;6.07;5.67;;;17.80;55.40;;;;;;20660;6746;312796;-75
2023/09/15 02:36:15;;;;;;;5.27;4.60;;;17.90;55.00;;;;;;20841;6747;117516;-75
2023/09/15 02:38:54;;;;;;;6.70;6.20;;;17.80;55.30;;;;;;20636;6747;282342;-75
2023/09/15 02:41:26;;;;;;;6.73;6.33;;;18.00;55.20;;;;;;20486;6747;284441;-75
2023/09/15 02:44:02;;;;;;;7.10;6.53;;;18.20;53.90;;;;;;20607;6744;306654;-75
2023/09/15 02:46:40;;;;;;;6.87;6.37;;;18.50;53.40;;;;;;20591;6759;304020;-75
2023/09/15 02:49:17;;;;;;;6.68;6.28;;;18.50;53.40;;;;;;20668;6729;306530;-75
2023/09/15 02:51:52;;;;;;;6.40;6.00;;;18.60;53.20;;;;;;20523;6729;279759;-75
2023/09/15 02:54:28;;;;;;;6.57;6.00;;;18.70;53.20;;;;;;20667;6729;306992;-75
2023/09/15 02:57:03;;;;;;;6.47;6.10;;;18.70;53.30;;;;;;20677;6729;281248;-75
2023/09/15 02:59:40;;;;;;;6.90;6.40;;;18.80;53.70;;;;;;20635;6744;306547;-76
2023/09/15 03:02:15;;;;;;;6.25;5.78;;;18.80;53.60;;;;;;20669;6729;296524;-75
2023/09/15 03:04:52;;;;;;;6.47;5.97;;;18.90;53.30;;;;;;20692;6729;277657;-75
2023/09/15 03:07:27;;;;;;;5.43;5.10;;;18.90;53.30;;;;;;20900;6729;118064;-75
2023/09/15 03:10:03;;;;;;;5.20;4.83;;;18.60;54.00;;;;;;20763;6759;120651;-77
2023/09/15 03:12:39;;;;;;;5.73;5.00;;;18.10;54.70;;;;;;20889;6729;118567;-75
2023/09/15 03:15:17;;;;;;;5.50;5.00;;;17.70;55.30;;;;;;20837;6747;116967;-75
2023/09/15 03:17:50;;;;;;;6.27;5.80;;;17.40;55.80;;;;;;20590;6744;308071;-75
2023/09/15 03:20:26;;;;;;;6.50;6.00;;;17.90;54.60;;;;;;20502;6753;331065;-75
2023/09/15 03:23:03;;;;;;;4.90;4.50;;;17.90;54.60;;;;;;20858;6744;117446;-79
2023/09/15 03:25:38;;;;;;;5.27;4.87;;;17.80;55.00;;;;;;20854;6743;117072;-75
2023/09/15 03:28:14;;;;;;;6.03;5.62;;;17.50;55.80;;;;;;20603;6743;305392;-75
2023/09/15 03:30:49;;;;;;;5.23;4.93;;;17.60;55.50;;;;;;20794;6750;118469;-75
2023/09/15 03:33:25;;;;;;;5.10;4.70;;;17.50;55.80;;;;;;20854;6741;119510;-75
2023/09/15 03:36:01;;;;;;;6.35;5.85;;;17.30;56.20;;;;;;20681;6729;277433;-75
2023/09/15 03:38:36;;;;;;;6.70;6.30;;;17.40;55.30;;;;;;20620;6755;282192;-75
2023/09/15 03:41:13;;;;;;;5.87;5.40;;;17.50;55.20;;;;;;20719;6741;119481;-75
2023/09/15 03:43:48;;;;;;;18.33;13.70;;;17.50;55.10;;;;;;20647;6740;308544;-75
2023/09/15 03:46:27;;;;;;;8.30;7.30;;;17.60;55.40;;;;;;20853;6739;117475;-79
2023/09/15 03:48:59;;;;;;;6.80;6.27;;;17.50;55.80;;;;;;20863;6741;119228;-75
2023/09/15 03:51:35;;;;;;;8.40;7.70;;;17.20;56.40;;;;;;20474;6741;309640;-75
2023/09/15 03:54:14;;;;;;;6.63;6.00;;;17.30;56.10;;;;;;20788;6747;117913;-75
2023/09/15 03:56:46;;;;;;;8.43;7.67;;;17.20;56.30;;;;;;20573;6768;278122;-75
2023/09/15 03:59:22;;;;;;;8.00;7.30;;;17.40;56.90;;;;;;20601;6758;279102;-75
2023/09/15 04:01:57;;;;;;;7.43;6.72;;;17.70;55.90;;;;;;20443;6758;281515;-75
2023/09/15 04:04:33;;;;;;;7.10;6.57;;;18.00;55.50;;;;;;20585;6744;278123;-75
2023/09/15 04:07:12;;;;;;;7.95;6.78;;;18.20;55.20;;;;;;20658;6741;277388;-76
2023/09/15 04:09:44;;;;;;;7.90;7.10;;;18.30;54.40;;;;;;20600;6756;312068;-75
2023/09/15 04:12:20;;;;;;;8.18;7.35;;;18.40;53.50;;;;;;20651;6726;305747;-77
2023/09/15 04:14:56;;;;;;;7.43;6.73;;;18.50;53.30;;;;;;20627;6741;310111;-76
2023/09/15 04:17:32;;;;;;;7.33;6.60;;;18.50;53.20;;;;;;20665;6758;117180;-75
2023/09/15 04:20:09;;;;;;;6.63;6.10;;;18.20;53.80;;;;;;20803;6741;121510;-76
2023/09/15 04:22:44;;;;;;;7.70;5.50;;;17.70;54.70;;;;;;20839;6743;117381;-76
2023/09/15 04:25:20;;;;;;;7.45;6.80;;;17.30;55.50;;;;;;20657;6741;307873;-75
2023/09/15 04:27:56;;;;;;;7.40;6.20;;;17.30;54.70;;;;;;20810;6756;117141;-75
2023/09/15 04:30:32;;;;;;;7.63;7.13;;;17.30;54.70;;;;;;20579;6741;318960;-75
2023/09/15 04:33:08;;;;;;;8.10;7.25;;;17.70;54.00;;;;;;20660;6741;305986;-78
2023/09/15 04:35:46;;;;;;;6.60;6.20;;;17.60;53.90;;;;;;20873;6741;123776;-78
2023/09/15 04:38:21;;;;;;;7.90;7.30;;;17.40;54.40;;;;;;20648;6741;308020;-77
2023/09/15 04:40:56;;;;;;;7.07;6.50;;;17.50;54.60;;;;;;20772;6741;117777;-77
2023/09/15 04:43:32;;;;;;;8.27;7.57;;;17.30;54.90;;;;;;20810;6758;117076;-75
2023/09/15 04:46:08;;;;;;;8.00;7.30;;;17.00;55.70;;;;;;20845;6741;117573;-78
2023/09/15 04:48:44;;;;;;;8.77;7.97;;;16.70;56.40;;;;;;20815;6756;119534;-78
2023/09/15 04:51:19;;;;;;;9.50;8.80;;;16.60;57.70;;;;;;20478;6755;298105;-77
2023/09/15 04:53:57;;;;;;;7.07;6.57;;;16.80;56.50;;;;;;20768;6755;117065;-78
2023/09/15 04:56:30;;;;;;;8.37;7.63;;;16.90;56.60;;;;;;20801;6805;120466;-79
2023/09/15 04:59:15;;;;;;;7.33;5.03;;;16.80;57.00;;;;;;20844;6734;120528;-78
2023/09/15 05:01:42;;;;;;;5.50;4.67;;;16.60;57.20;;;;;;20736;6734;70200;-76
2023/09/15 05:04:19;;;;;;;5.00;4.70;;;16.40;57.20;;;;;;20561;6751;307834;-80
2023/09/15 05:06:55;;;;;;;9.47;4.23;;;16.70;56.40;;;;;;20801;6751;117071;-79
2023/09/15 05:09:31;;;;;;;112.37;6.03;;;16.60;56.30;;;;;;20850;6751;117007;-78
2023/09/15 05:12:08;;;;;;;40.17;5.20;;;16.40;57.30;;;;;;20562;6822;118370;-78
2023/09/15 05:14:43;;;;;;;717.22;16.92;;;16.30;57.20;;;;;;20561;6774;337347;-78
2023/09/15 05:17:19;;;;;;;372.00;11.90;;;16.50;57.10;;;;;;20545;6777;309551;-80
2023/09/15 05:19:57;;;;;;;484.50;14.93;;;16.90;56.50;;;;;;20548;6768;300370;-80
2023/09/15 05:22:30;;;;;;;138.90;7.03;;;17.20;55.60;;;;;;20766;6768;120710;-82
2023/09/15 05:25:07;;;;;;;29.23;4.67;;;16.70;56.50;;;;;;20761;6768;117438;-85
2023/09/15 05:27:42;;;;;;;15.93;4.07;;;16.70;56.50;;;;;;20585;6754;295883;-80
2023/09/15 05:30:18;;;;;;;4.10;3.90;;;16.90;56.10;;;;;;20469;6768;322326;-79
2023/09/15 05:32:55;;;;;;;4.77;4.40;;;17.20;55.30;;;;;;20644;6764;306387;-79
2023/09/15 05:35:30;;;;;;;4.40;4.10;;;17.50;54.70;;;;;;20828;6764;117817;-80
2023/09/15 05:38:06;;;;;;;5.60;4.60;;;17.30;55.10;;;;;;20848;6734;120178;-80
2023/09/15 05:40:41;;;;;;;4.40;4.00;;;17.00;55.80;;;;;;20771;6754;118570;-79
2023/09/15 05:43:17;;;;;;;4.60;4.30;;;16.80;56.60;;;;;;20890;6739;117034;-80
2023/09/15 05:45:52;;;;;;;4.57;4.27;;;16.60;57.30;;;;;;20805;6754;119190;-80
2023/09/15 05:48:28;;;;;;;4.70;4.50;;;16.70;58.00;;;;;;20822;6749;117463;-79
2023/09/15 05:51:07;;;;;;;6.67;4.20;;;16.70;58.20;;;;;;20717;6751;117926;-82
2023/09/15 05:53:40;;;;;;;4.80;4.50;;;17.00;58.50;;;;;;20776;6764;117228;-77
2023/09/15 05:56:16;;;;;;;5.50;5.03;;;16.90;58.40;;;;;;20618;6753;311178;-74
2023/09/15 05:58:54;;;;;;;5.13;4.70;;;17.40;56.90;;;;;;20827;6754;120457;-76
2023/09/15 06:01:28;;;;;;;6.33;5.70;;;18.10;55.50;;;;;;20535;6748;298864;-75
2023/09/15 06:04:05;;;;;;;6.22;5.78;;;18.00;55.40;;;;;;20613;6749;306752;-75
2023/09/15 06:06:39;;;;;;;5.60;5.20;;;18.50;54.40;;;;;;20642;6740;306969;-73
2023/09/15 06:09:16;;;;;;;4.50;4.30;;;18.90;53.80;;;;;;20809;6760;117114;-75
2023/09/15 06:11:52;;;;;;;5.77;5.40;;;18.90;54.30;;;;;;20420;6760;281473;-73
2023/09/15 06:14:28;;;;;;;5.47;5.07;;;18.90;53.40;;;;;;20608;6749;277758;-74
2023/09/15 06:17:07;;;;;;;5.60;5.20;;;19.20;53.10;;;;;;20581;6754;306914;-74
2023/09/15 06:19:39;;;;;;;5.37;5.07;;;19.40;52.40;;;;;;20587;6751;278690;-73
2023/09/15 06:22:15;;;;;;;5.10;4.80;;;19.70;52.20;;;;;;20803;6751;122887;-74
2023/09/15 06:24:52;;;;;;;6.87;6.37;;;19.50;52.80;;;;;;20570;6761;308547;-74
2023/09/15 06:27:30;;;;;;;6.73;6.23;;;19.60;52.60;;;;;;20525;6776;303074;-73
2023/09/15 06:30:03;;;;;;;5.70;5.20;;;19.80;52.30;;;;;;20475;6779;288219;-74
2023/09/15 06:32:40;;;;;;;5.37;5.00;;;20.20;51.40;;;;;;20572;6765;281671;-74
2023/09/15 06:35:20;;;;;;;4.73;4.40;;;20.20;51.40;;;;;;20899;6736;116978;-75
2023/09/15 06:37:53;;;;;;;5.82;5.25;;;19.90;52.00;;;;;;20665;6751;306532;-75
2023/09/15 06:40:30;;;;;;;5.07;4.67;;;20.00;52.20;;;;;;20506;6762;310650;-75
2023/09/15 06:43:07;;;;;;;6.53;5.93;;;20.20;51.70;;;;;;20584;6762;281427;-75
2023/09/15 06:45:41;;;;;;;6.40;5.70;;;20.40;51.50;;;;;;20585;6762;307221;-75
2023/09/15 06:48:17;;;;;;;6.20;5.70;;;20.60;51.70;;;;;;20577;6758;277811;-75
2023/09/15 06:50:54;;;;;;;7.10;6.60;;;20.80;51.40;;;;;;20509;6756;317281;-75
2023/09/15 06:53:30;;;;;;;6.67;6.17;;;20.80;51.10;;;;;;20789;6766;117511;-75
2023/09/15 06:56:06;;;;;;;8.67;6.53;;;20.70;51.00;;;;;;20781;6762;120667;-77
2023/09/15 06:58:41;;;;;;;7.70;7.00;;;20.50;52.00;;;;;;20510;6774;309290;-76
2023/09/15 07:01:17;;;;;;;6.20;5.47;;;20.70;51.50;;;;;;20598;6794;118048;-77
2023/09/15 07:03:52;;;;;;;6.70;6.00;;;20.70;51.90;;;;;;20882;6736;117045;-74
2023/09/15 07:06:31;;;;;;;7.20;6.63;;;20.60;52.60;;;;;;20844;6743;119947;-74
2023/09/15 07:09:04;;;;;;;6.47;5.97;;;20.50;52.80;;;;;;20810;6753;117141;-74
2023/09/15 07:11:39;;;;;;;6.30;5.60;;;20.50;53.10;;;;;;20623;6759;119157;-78
2023/09/15 07:14:15;;;;;;;6.07;5.67;;;20.40;53.30;;;;;;20787;6759;120025;-74
2023/09/15 07:16:51;;;;;;;7.30;6.63;;;20.50;53.50;;;;;;20626;6744;279245;-76
2023/09/15 07:19:27;;;;;;;6.87;6.47;;;21.30;51.40;;;;;;20540;6774;303573;-78
2023/09/15 07:22:02;;;;;;;6.73;6.20;;;21.30;51.30;;;;;;20548;6774;119604;-75
2023/09/15 07:24:41;;;;;;;6.07;5.57;;;21.40;51.60;;;;;;20767;6774;117299;-74
2023/09/15 07:27:14;;;;;;;6.60;6.00;;;21.30;51.80;;;;;;20759;6777;122515;-74
2023/09/15 07:29:50;;;;;;;7.63;7.00;;;21.60;51.00;;;;;;20601;6762;276067;-73
2023/09/15 07:32:26;;;;;;;7.43;6.93;;;21.50;50.80;;;;;;20583;6751;336676;-74
2023/09/15 07:35:01;;;;;;;6.57;5.90;;;22.00;50.00;;;;;;20833;6751;117562;-74
2023/09/15 07:37:37;;;;;;;7.40;6.70;;;22.20;50.00;;;;;;20616;6751;310795;-73
2023/09/15 07:40:12;;;;;;;6.77;5.63;;;22.50;49.70;;;;;;20771;6751;117944;-75
2023/09/15 07:42:49;;;;;;;7.57;7.03;;;22.80;49.50;;;;;;20597;6760;306649;-77
2023/09/15 07:45:24;;;;;;;6.00;5.67;;;22.80;49.00;;;;;;20779;6766;117199;-77
2023/09/15 07:48:00;;;;;;;5.60;5.10;;;22.90;49.70;;;;;;20808;6769;117156;-74
2023/09/15 07:50:41;;;;;;;6.50;6.00;;;22.80;50.10;;;;;;20543;6757;284372;-76
2023/09/15 07:53:11;;;;;;;6.62;6.07;;;23.10;49.50;;;;;;20509;6757;280552;-77
2023/09/15 07:55:47;;;;;;;6.90;6.30;;;23.40;48.40;;;;;;20573;6762;303499;-76
2023/09/15 07:58:25;;;;;;;6.60;6.00;;;23.80;47.30;;;;;;20521;6758;311076;-75
2023/09/15 08:00:58;;;;;;;6.95;6.37;;;24.10;47.40;;;;;;20507;6761;343019;-79
2023/09/15 08:03:33;;;;;;;6.27;5.73;;;24.30;47.40;;;;;;20855;6753;117573;-76
2023/09/15 08:06:09;;;;;;;6.07;5.67;;;24.30;48.00;;;;;;20785;6779;118427;-79
2023/09/15 08:08:44;;;;;;;7.23;6.70;;;24.20;48.60;;;;;;20572;6766;310234;-76
2023/09/15 08:11:20;;;;;;;7.70;7.20;;;24.40;46.70;;;;;;20521;6747;313601;-76
2023/09/15 08:14:05;;;;;;;7.37;6.70;;;24.80;46.00;;;;;;20893;6732;121933;-79
2023/09/15 08:16:31;;;;;;;8.77;8.10;;;24.80;46.70;;;;;;20661;6734;306733;-75
2023/09/15 08:19:07;;;;;;;8.45;7.82;;;25.00;45.80;;;;;;20610;6749;309530;-79
2023/09/15 08:21:42;;;;;;;8.23;7.73;;;25.40;44.60;;;;;;20746;6736;119457;-78
2023/09/15 08:24:20;;;;;;;7.43;6.93;;;25.20;45.60;;;;;;20880;6721;119258;-78
2023/09/15 08:26:53;;;;;;;7.97;7.50;;;25.00;46.60;;;;;;20641;6749;278000;-77
2023/09/15 08:29:29;;;;;;;8.68;7.95;;;25.10;45.80;;;;;;20628;6749;310452;-75
2023/09/15 08:32:06;;;;;;;8.60;8.00;;;25.60;45.30;;;;;;20598;6749;118012;-77
2023/09/15 08:34:42;;;;;;;8.73;8.10;;;25.60;45.70;;;;;;20582;6764;277737;-78
2023/09/15 08:37:17;;;;;;;8.27;7.67;;;25.60;44.30;;;;;;20848;6749;117007;-77
2023/09/15 08:39:53;;;;;;;8.60;8.10;;;25.50;45.10;;;;;;20631;6745;308544;-75
2023/09/15 08:42:28;;;;;;;8.13;7.53;;;25.50;44.50;;;;;;20784;6764;120353;-77
2023/09/15 08:45:04;;;;;;;8.37;7.77;;;25.40;45.40;;;;;;20900;6734;117037;-76
2023/09/15 08:47:43;;;;;;;8.68;8.07;;;25.20;46.20;;;;;;20698;6734;306933;-76
2023/09/15 08:50:19;;;;;;;8.00;7.40;;;25.40;45.30;;;;;;20839;6782;118041;-76
2023/09/15 08:52:54;;;;;;;9.00;8.40;;;25.50;45.90;;;;;;20700;6734;324592;-78
2023/09/15 08:55:30;;;;;;;8.50;7.80;;;25.70;44.20;;;;;;20920;6734;122908;-79
2023/09/15 08:58:06;;;;;;;9.17;7.30;;;25.70;45.00;;;;;;20848;6749;117167;-78
2023/09/15 09:00:42;;;;;;;8.57;7.97;;;25.80;45.00;;;;;;20563;6751;308296;-78
2023/09/15 09:03:22;;;;;;;6.83;6.43;;;25.80;45.00;;;;;;20860;6751;122929;-77
2023/09/15 09:05:54;;;;;;;6.63;6.23;;;26.00;45.70;;;;;;20843;6749;117584;-75
2023/09/15 09:08:29;;;;;;;7.43;6.93;;;26.30;44.40;;;;;;20622;6745;278201;-75
2023/09/15 09:11:05;;;;;;;7.47;6.97;;;26.20;44.40;;;;;;20697;6764;117538;-79
2023/09/15 09:13:41;;;;;;;8.07;7.40;;;26.40;45.00;;;;;;20605;6749;277737;-77
2023/09/15 09:16:18;;;;;;;8.48;7.90;;;26.60;43.60;;;;;;20562;6779;295856;-77
2023/09/15 09:18:54;;;;;;;7.37;6.87;;;27.00;42.50;;;;;;20842;6749;117621;-76
2023/09/15 09:21:29;;;;;;;7.13;6.43;;;26.90;43.60;;;;;;20764;6736;117458;-77
2023/09/15 09:24:04;;;;;;;6.83;6.23;;;26.60;44.70;;;;;;20880;6734;117495;-76
2023/09/15 09:26:40;;;;;;;7.37;6.87;;;26.50;45.70;;;;;;20874;6744;119952;-77
2023/09/15 09:29:16;;;;;;;7.73;7.13;;;26.40;45.60;;;;;;20851;6749;117205;-78
2023/09/15 09:31:51;;;;;;;8.37;7.87;;;26.30;45.90;;;;;;20469;6756;279683;-79
2023/09/15 09:34:27;;;;;;;6.30;5.90;;;26.60;43.80;;;;;;20826;6753;119290;-77
2023/09/15 09:37:03;;;;;;;7.40;7.00;;;26.70;44.80;;;;;;20642;6753;281539;-76
2023/09/15 09:39:38;;;;;;;7.00;6.50;;;27.00;43.90;;;;;;20862;6753;117371;-76
2023/09/15 09:42:14;;;;;;;6.80;6.23;;;27.00;44.10;;;;;;20657;6809;124036;-79
2023/09/15 09:44:53;;;;;;;7.27;6.67;;;26.90;44.90;;;;;;20767;6770;266036;-77
2023/09/15 09:47:29;;;;;;;7.00;6.50;;;26.90;45.10;;;;;;20587;6768;304902;-76
2023/09/15 09:50:05;;;;;;;8.40;7.45;;;27.10;43.90;;;;;;20479;6768;301519;-78
2023/09/15 09:52:41;;;;;;;6.07;5.77;;;27.90;42.10;;;;;;20565;6773;289343;-75
2023/09/15 09:55:16;;;;;;;6.57;6.17;;;27.80;42.00;;;;;;20624;6751;307277;-77
2023/09/15 09:57:52;;;;;;;6.63;6.10;;;28.10;41.90;;;;;;20845;6749;117124;-76
2023/09/15 10:00:29;;;;;;;6.07;5.60;;;28.00;42.90;;;;;;20765;6751;118707;-76
2023/09/15 10:03:04;;;;;;;7.10;6.60;;;27.80;43.50;;;;;;20637;6751;306283;-77
2023/09/15 10:05:43;;;;;;;8.23;7.53;;;28.00;43.00;;;;;;20614;6751;318438;-77
2023/09/15 10:08:19;;;;;;;6.03;5.63;;;28.30;42.20;;;;;;20752;6779;118812;-78
2023/09/15 10:10:52;;;;;;;6.20;5.70;;;28.40;41.90;;;;;;20496;6764;310549;-75
2023/09/15 10:13:27;;;;;;;6.23;5.63;;;28.40;41.90;;;;;;20771;6779;119469;-75
2023/09/15 10:16:06;;;;;;;6.47;5.87;;;28.40;42.50;;;;;;20557;6766;309881;-75
2023/09/15 10:18:42;;;;;;;6.90;6.40;;;28.50;41.80;;;;;;20637;6749;306652;-76
2023/09/15 10:21:17;;;;;;;6.70;6.27;;;28.80;40.80;;;;;;20746;6746;117852;-79
2023/09/15 10:24:06;;;;;;;6.37;5.87;;;28.70;41.20;;;;;;20581;6761;299112;-77
2023/09/15 10:26:41;;;;;;;6.37;5.97;;;28.80;40.50;;;;;;20797;6756;117268;-77
2023/09/15 10:29:17;;;;;;;6.80;5.50;;;28.60;41.30;;;;;;20774;6756;117619;-74
2023/09/15 10:31:52;;;;;;;7.47;7.00;;;28.40;42.30;;;;;;20342;6756;280818;-73
2023/09/15 10:34:29;;;;;;;6.60;6.00;;;28.50;40.60;;;;;;20722;6726;122232;-75
2023/09/15 10:37:04;;;;;;;6.57;6.00;;;28.50;41.50;;;;;;20509;6726;277829;-75
2023/09/15 10:39:40;;;;;;;6.53;6.12;;;28.60;40.70;;;;;;20538;6744;280540;-76
2023/09/15 10:42:15;;;;;;;6.68;6.35;;;28.90;40.60;;;;;;20520;6744;338838;-74
2023/09/15 10:44:51;;;;;;;6.47;6.03;;;29.20;39.30;;;;;;20538;6743;291237;-75
2023/09/15 10:47:26;;;;;;;6.03;5.53;;;29.40;39.30;;;;;;20756;6743;116922;-75
2023/09/15 10:50:04;;;;;;;6.17;5.77;;;29.20;40.10;;;;;;20721;6742;117499;-77
2023/09/15 10:52:38;;;;;;;6.30;5.80;;;28.70;41.00;;;;;;20693;6757;117207;-75
2023/09/15 10:55:14;;;;;;;6.23;5.83;;;28.70;40.90;;;;;;20478;6757;278117;-75
2023/09/15 10:57:50;;;;;;;5.60;5.30;;;28.90;39.40;;;;;;20448;6757;279084;-75
2023/09/15 11:00:26;;;;;;;5.27;4.97;;;28.90;39.40;;;;;;20619;6768;122820;-78
2023/09/15 11:03:01;;;;;;;5.77;5.47;;;28.80;40.10;;;;;;20716;6741;117628;-74
2023/09/15 11:05:37;;;;;;;7.00;6.50;;;28.60;39.70;;;;;;20651;6741;275610;-74
2023/09/15 11:08:16;;;;;;;6.80;6.10;;;28.60;39.70;;;;;;20683;6741;280711;-75
2023/09/15 11:10:49;;;;;;;5.97;5.60;;;28.90;39.90;;;;;;20620;6741;307944;-74
2023/09/15 11:13:24;;;;;;;6.83;6.43;;;29.10;39.40;;;;;;20865;6756;118164;-74
2023/09/15 11:16:01;;;;;;;6.50;6.10;;;29.00;38.50;;;;;;20609;6756;277257;-74
2023/09/15 11:18:36;;;;;;;6.07;5.60;;;29.00;39.00;;;;;;20818;6756;118155;-74
2023/09/15 11:21:12;;;;;;;5.43;5.03;;;28.90;39.80;;;;;;20716;6756;118925;-74
2023/09/15 11:23:47;;;;;;;5.63;5.30;;;28.70;40.40;;;;;;20827;6756;118248;-74
2023/09/15 11:26:25;;;;;;;6.27;5.87;;;28.70;40.20;;;;;;20643;6756;277062;-74
2023/09/15 11:28:59;;;;;;;7.00;6.50;;;28.60;40.10;;;;;;20657;6756;343033;-74
2023/09/15 11:31:35;;;;;;;7.13;6.60;;;29.00;39.40;;;;;;20734;6756;117438;-74
2023/09/15 11:34:15;;;;;;;6.60;6.20;;;28.90;39.50;;;;;;20654;6756;301208;-73
2023/09/15 11:36:50;;;;;;;5.87;5.37;;;28.80;40.30;;;;;;20876;6753;117867;-75
2023/09/15 11:39:28;;;;;;;6.15;5.65;;;28.80;40.30;;;;;;20648;6753;336615;-77
2023/09/15 11:42:03;;;;;;;6.43;6.03;;;29.00;40.20;;;;;;20681;6756;117588;-74
2023/09/15 11:44:37;;;;;;;6.53;6.03;;;29.00;40.30;;;;;;20636;6756;278115;-73
2023/09/15 11:47:14;;;;;;;6.40;6.00;;;29.30;39.30;;;;;;20633;6750;310010;-75
2023/09/15 11:49:50;;;;;;;6.00;5.60;;;29.30;39.30;;;;;;20872;6750;117021;-76
2023/09/15 11:52:27;;;;;;;8.93;5.60;;;29.20;39.80;;;;;;20802;6750;118678;-79
2023/09/15 11:55:06;;;;;;;6.33;6.00;;;29.00;40.10;;;;;;20476;6756;280984;-76
2023/09/15 12:51:38;;;;;;;4.30;4.10;;;30.40;35.40;;;;;;21027;6514;72915;-75
2023/09/15 12:54:04;;;;;;;4.30;4.10;;;30.10;36.10;;;;;;20777;6765;116919;-74
2023/09/15 12:56:31;;;;;;;5.00;4.70;;;29.70;36.80;;;;;;20442;6765;310841;-75
2023/09/15 12:58:55;;;;;;;5.10;4.73;;;29.60;36.50;;;;;;20622;6821;121804;-74
2023/09/15 13:01:20;;;;;;;4.85;4.65;;;29.50;37.00;;;;;;20453;6821;285819;-75
2023/09/15 13:03:46;;;;;;;4.83;4.53;;;29.50;36.90;;;;;;20686;6823;120820;-76
2023/09/15 13:06:12;;;;;;;4.62;4.43;;;29.40;37.40;;;;;;20450;6823;315518;-75
2023/09/15 13:08:37;;;;;;;5.63;4.87;;;29.40;37.10;;;;;;20631;6838;120792;-76
2023/09/15 13:11:03;;;;;;;5.00;4.53;;;29.30;38.00;;;;;;20391;6852;290028;-76
2023/09/15 13:13:28;;;;;;;5.10;4.60;;;29.40;37.40;;;;;;20371;6852;315235;-76
2023/09/15 13:15:54;;;;;;;4.73;4.37;;;29.60;36.70;;;;;;20619;6852;117844;-78
2023/09/15 13:18:23;;;;;;;4.60;4.30;;;29.60;37.00;;;;;;20591;6838;117394;-78
2023/09/15 13:20:46;;;;;;;4.93;4.23;;;29.10;38.20;;;;;;20618;6845;117433;-77
2023/09/15 13:23:12;;;;;;;4.73;4.43;;;29.10;37.90;;;;;;20421;6845;308627;-77
2023/09/15 13:25:37;;;;;;;5.13;4.73;;;29.20;37.30;;;;;;20381;6845;279692;-75
2023/09/15 13:28:05;;;;;;;5.20;4.85;;;29.40;36.40;;;;;;20382;6841;280794;-78
2023/09/15 13:30:29;;;;;;;4.90;4.60;;;29.60;35.80;;;;;;20372;6857;279017;-76
2023/09/15 13:32:55;;;;;;;4.97;4.67;;;29.70;35.30;;;;;;20346;6870;346734;-76
2023/09/15 13:35:21;;;;;;;4.70;4.50;;;29.80;35.70;;;;;;20347;6856;308581;-72
2023/09/15 13:37:46;;;;;;;4.50;4.20;;;29.80;35.70;;;;;;20636;6845;117204;-73
2023/09/15 13:40:12;;;;;;;4.47;4.23;;;29.50;36.40;;;;;;20609;6845;119356;-74
2023/09/15 13:42:38;;;;;;;4.77;4.47;;;29.20;37.30;;;;;;20595;6845;67386;-73
2023/09/15 13:45:03;;;;;;;5.17;4.67;;;29.00;37.70;;;;;;20619;6845;117487;-74
2023/09/15 13:47:29;;;;;;;5.57;5.17;;;28.90;37.50;;;;;;20365;6860;312692;-73
2023/09/15 13:49:55;;;;;;;5.57;5.18;;;28.80;37.50;;;;;;20412;6842;309103;-73
2023/09/15 13:52:21;;;;;;;5.43;5.12;;;29.10;37.50;;;;;;20370;6842;317520;-74
2023/09/15 13:54:46;;;;;;;5.87;5.27;;;29.30;37.10;;;;;;20402;6845;316916;-74
2023/09/15 13:57:12;;;;;;;5.50;5.20;;;29.40;36.90;;;;;;20402;6855;308040;-74
2023/09/15 13:59:37;;;;;;;5.50;5.17;;;29.50;37.40;;;;;;20663;6846;119457;-75
2023/09/15 14:02:03;;;;;;;5.62;5.32;;;29.30;37.70;;;;;;20394;6844;310769;-75
2023/09/15 14:04:28;;;;;;;5.90;5.50;;;29.20;37.50;;;;;;20424;6846;307648;-75
2023/09/15 14:06:54;;;;;;;6.33;6.00;;;29.30;37.70;;;;;;20537;6852;120849;-74
2023/09/15 14:09:20;;;;;;;16.03;14.63;;;29.10;38.30;;;;;;20326;6851;278905;-77